• Join FlightAware (Why Join?)
  • Login
  • US Flag 
07:46AM EDT


 

Airport Tracker/Info


-or-


 

Live Flight TrackerFlight Track Log ✈ ASQ5941 ✈ 14-Jul-2013 ✈ KAVP - KORD

Flight Track Log - Related Links

Times and Time Zones

All times are in EDT time to prevent confusion due to time zone crossing. See the ASQ5941 flight status page for this flight to view local times or setup timezone preferences in your user account.

Time Position Orientation Groundspeed Altitude Reporting Facility
EDT Latitude Longitude Course Direction KTS MPH feet Rate Location/Type
05:19PM 41.4408 -75.9648 304° West  Level FlightAware Approximate
05:20PM 41.4957 -76.0553 315° West  Level FlightAware Approximate
05:20PM 41.3936 -75.8622 352° North 292 336 8,000  Level New York Center
05:21PM 41.5552 -76.1412 312° West  Level FlightAware Approximate
05:21PM 41.4697 -75.8817 349° North 287 330 9,800  Level New York Center
05:22PM 41.6109 -76.2315 307° West  Level FlightAware Approximate
05:22PM 41.5311 -75.9531 319° Northwest 266 306 11,400  Level New York Center
05:23PM 41.6639 -76.3250 307° West  Level FlightAware Approximate
05:23PM 41.5856 -76.0458 308° West 286 329 12,000  Level New York Center
05:24PM 41.7162 -76.4192 307° West  Level FlightAware Approximate
05:24PM 41.6375 -76.1389 307° West 337 388 12,500  Level New York Center
05:25PM 41.6908 -76.2486 303° West 356 410 13,400 900 Climbing New York Center
05:27PM 41.7567 -76.4850 291° West 356 410 15,300 960 Climbing New York Center
05:28PM 41.7978 -76.6247 292° West 361 415 16,400 960 Climbing New York Center
05:29PM 41.8311 -76.7503 290° West 361 415 17,300 540 Climbing New York Center
05:30PM 41.8950 -76.9733 291° West 368 423 17,900 360 Climbing Cleveland Center
05:31PM 41.9325 -77.1108 290° West 381 438 18,400 540 Climbing Cleveland Center
05:32PM 41.9678 -77.2483 289° West 387 445 19,000 540 Climbing Cleveland Center
05:33PM 42.0053 -77.3892 290° West 397 457 19,500 480 Climbing Cleveland Center
05:34PM 42.0444 -77.5297 291° West 403 464 20,000 540 Climbing Cleveland Center
05:35PM 42.0817 -77.6733 289° West 403 464 20,600 540 Climbing Cleveland Center
05:36PM 42.1206 -77.8200 290° West 403 464 21,100 540 Climbing Cleveland Center
05:37PM 42.1594 -77.9642 290° West 403 464 21,700 540 Climbing Cleveland Center
05:38PM 42.1961 -78.1083 289° West 403 464 22,200 480 Climbing Cleveland Center
05:39PM 42.2344 -78.2528 290° West 403 464 22,700 540 Climbing Cleveland Center
05:40PM 42.2728 -78.4000 289° West 403 464 23,300 540 Climbing Cleveland Center
05:41PM 42.3089 -78.5475 288° West 403 464 23,800 300 Climbing Cleveland Center
05:42PM 42.3469 -78.6953 289° West 408 470 24,000 60 Climbing Cleveland Center
05:43PM 42.3847 -78.8458 289° West 418 481 24,000  Level Cleveland Center
05:44PM 42.4222 -78.9997 288° West 423 487 24,000  Level Cleveland Center
05:45PM 42.4617 -79.1533 289° West 428 493 24,000  Level Cleveland Center
05:46PM 42.4950 -79.3103 286° West 433 498 24,000  Level Cleveland Center
05:47PM 42.5028 -79.4764 274° West 443 510 24,000  Level Cleveland Center
05:48PM 42.5106 -79.6425 274° West 443 510 24,000  Level Cleveland Center
05:49PM 42.5222 -79.8114 275° West 443 510 24,000  Level Cleveland Center
05:50PM 42.5422 -79.9942 279° West 449 517 24,000  Level Cleveland Center
05:51PM 42.5636 -80.1603 280° West 449 517 24,000  Level Cleveland Center
05:52PM 42.5828 -80.3236 279° West 444 511 24,000  Level Cleveland Center
05:53PM 42.6061 -80.4872 281° West 444 511 24,000  Level Cleveland Center
05:54PM 42.6247 -80.6508 279° West 444 511 24,000  Level Cleveland Center
05:55PM 42.6456 -80.8147 280° West 444 511 24,000  Level Cleveland Center
05:56PM 42.6658 -80.9783 280° West 442 509 24,000  Level Cleveland Center
05:57PM 42.6861 -81.1481 279° West 447 514 24,000  Level Cleveland Center
05:58PM 42.7039 -81.3122 278° West 447 514 24,000  Level Cleveland Center
05:59PM 42.7236 -81.4761 279° West 447 514 24,000  Level Cleveland Center
06:00PM 42.7411 -81.6236 279° West 447 514 24,000  Level Cleveland Center
06:01PM 42.7600 -81.8047 278° West 447 514 24,000  Level Cleveland Center
06:02PM 42.7792 -81.9664 279° West 447 514 24,000  Level Cleveland Center
06:03PM 42.7978 -82.1339 279° West 447 514 24,000  Level Cleveland Center
06:04PM 42.8164 -82.2956 279° West 447 514 24,000  Level Cleveland Center
06:05PM 42.8347 -82.4631 279° West 447 514 24,000  Level Cleveland Center
06:06PM 42.8528 -82.6250 279° West 447 514 24,000  Level Cleveland Center
06:07PM 42.8703 -82.7956 278° West 452 520 24,000  Level Cleveland Center
06:08PM 42.8858 -82.9578 278° West 447 514 24,000  Level Cleveland Center
06:09PM 42.9033 -83.1228 278° West 447 514 24,000  Level Cleveland Center
06:10PM 42.9203 -83.2908 278° West 447 514 24,000  Level Cleveland Center
06:11PM 42.9372 -83.4533 278° West 447 514 24,000  Level Cleveland Center
06:12PM 42.9539 -83.6186 278° West 442 509 24,000  Level Cleveland Center
06:13PM 42.9639 -83.7864 275° West 442 509 24,000  Level Cleveland Center
06:14PM 42.9467 -83.9500 262° West 442 509 24,000  Level Cleveland Center
06:15PM 42.9314 -84.1139 263° West 437 503 24,000  Level Cleveland Center
06:16PM 42.9214 -84.2089 262° West 437 503 24,000  Level Chicago Center
06:17PM 42.9053 -84.3728 262° West 437 503 24,000  Level Chicago Center
06:18PM 42.8856 -84.5694 262° West 438 504 24,000  Level Chicago Center
06:19PM 42.8683 -84.7328 262° West 435 501 24,000  Level Chicago Center
06:20PM 42.8525 -84.8967 263° West 437 503 24,000  Level Chicago Center
06:21PM 42.8347 -85.0594 262° West 436 502 24,000  Level Chicago Center
06:22PM 42.8161 -85.2233 261° West 437 503 24,000  Level Chicago Center
06:23PM 42.7992 -85.3833 262° West 432 497 24,000  Level Chicago Center
06:24PM 42.7744 -85.5678 260° West 417 480 24,000  Level Chicago Center
06:25PM 42.7472 -85.7158 256° West 405 466 24,000 -300 Level Chicago Center
06:26PM 42.7200 -85.8606 256° West 397 457 23,400 -1,140 Descending Chicago Center
06:27PM 42.6944 -86.0078 257° West 397 457 21,700 -1,560 Descending Chicago Center
06:28PM 42.6689 -86.1469 256° West 383 441 20,200 -840 Descending Chicago Center
06:29PM 42.6444 -86.2797 256° West 364 419 20,000 -180 Descending Chicago Center
06:31PM 42.6194 -86.4106 255° West 361 415 19,900 -540 Descending Chicago Center
06:32PM 42.5944 -86.5364 255° West 344 396 19,000 -960 Descending Chicago Center
06:33PM 42.5675 -86.6817 256° West 334 384 18,000 -780 Descending Chicago Center
06:34PM 42.5444 -86.7883 254° West 328 377 17,400 -600 Descending Chicago Center
06:35PM 42.5056 -86.9317 250° West 343 395 16,800 -1,440 Descending Chicago Center
06:36PM 42.4708 -87.0514 249° West 376 433 14,400 -2,640 Descending Chicago Center
06:37PM 42.4356 -87.1811 250° West 369 425 11,300 -2,160 Descending Chicago Center
06:38PM 42.4019 -87.3031 250° West 352 405 10,000 -720 Descending Chicago Center
06:39PM 42.3672 -87.4283 249° West 334 384 9,900 -960 Descending Chicago Center
06:40PM 42.3342 -87.5422 249° West 276 318 8,100 -1,440 Descending Chicago Center
06:41PM 42.2736 -87.6036 217° Southwest 271 312 7,000 -540 Descending Chicago Center
06:42PM 42.2219 -87.6594 219° Southwest 243 280 7,000 -60 Level Chicago Center
06:43PM 42.2144 -87.7428 263° West 236 272 6,900 -60 Descending Chicago Center
06:44PM 42.2139 -87.8311 270° West 238 274 6,900  Level Chicago Center
06:45PM 42.2136 -87.9194 270° West 204 235 7,000  Climbing Chicago Center
06:46PM 42.2328 -87.9883 291° West 202 232 6,900  Descending Chicago Center
06:47PM 42.2617 -88.0519 302° West 201 231 7,000  Climbing Chicago Center
06:48PM 42.2989 -88.1111 310° West 206 237 7,000 -240 Level Chicago Center
06:49PM 42.2750 -88.1664 240° Southwest 199 229 6,500 -840 Descending Chicago Center
06:50PM 42.2142 -88.1656 179° South 194 223 5,300 -780 Descending Chicago Center
06:51PM 42.1664 -88.1336 154° Southeast 192 221 4,900 -540 Descending Chicago Center
06:52PM 42.1278 -88.0908 141° Southeast 181 208 4,200 -780 Descending Chicago Center
06:53PM 42.0878 -88.0450 140° Southeast 188 216 3,400 -960 Descending Chicago Center
06:54PM 42.0500 -88.0000 138° Southeast 172 198 2,400 -1,140 Descending Chicago TRACON
06:55PM 42.0167 -87.9667 143° Southeast 140 161 1,400 -1,140 Descending Chicago TRACON